Time;durP1;ratioP1;P1;durP2;ratioP2;P2;SDS_P1;SDS_P2;PMS_P1;PMS_P2;Temp;Humidity;BMP_temperature;BMP_pressure;BME280_temperature;BME280_humidity;BME280_pressure;Samples;Min_cycle;Max_cycle;Signal;HPM_P1;HPM_P2
2023/12/30 00:01:33;;;;;;;2.33;1.37;;;9.90;75.30;;;;;;2584888;54;20058;31
2023/12/30 00:04:07;;;;;;;;;;;9.90;75.40;;;;;;2584815;54;20243;31
2023/12/30 00:06:43;;;;;;;2.15;1.05;;;9.90;75.40;;;;;;2603295;47;19941;31
2023/12/30 00:09:21;;;;;;;;;;;9.90;76.40;;;;;;2585131;54;22220;31
2023/12/30 00:12:00;;;;;;;3.15;1.20;;;9.90;75.80;;;;;;2602809;47;20925;31
2023/12/30 00:14:36;;;;;;;4.07;1.67;;;9.90;76.40;;;;;;2590576;47;20088;31
2023/12/30 00:17:11;;;;;;;2.43;1.23;;;9.90;75.00;;;;;;2584476;54;21011;31
2023/12/30 00:19:47;;;;;;;2.83;1.38;;;9.90;74.40;;;;;;2584675;54;20234;31
2023/12/30 00:22:23;;;;;;;4.05;1.48;;;9.90;74.60;;;;;;2603272;47;20905;31
2023/12/30 00:24:57;;;;;;;;;;;10.00;74.10;;;;;;2598048;47;20022;31
2023/12/30 00:27:35;;;;;;;2.30;1.00;;;10.00;74.40;;;;;;2584466;54;20004;31
2023/12/30 00:30:12;;;;;;;1.70;1.20;;;10.00;72.90;;;;;;2583779;54;20035;31
2023/12/30 00:32:48;;;;;;;3.38;1.08;;;10.00;71.40;;;;;;2583455;54;20802;31
2023/12/30 00:35:23;;;;;;;4.55;1.20;;;9.90;70.60;;;;;;2595377;47;20968;31
2023/12/30 00:37:58;;;;;;;2.83;1.33;;;9.90;71.40;;;;;;2594125;47;20038;31
2023/12/30 00:40:32;;;;;;;3.90;1.40;;;9.90;71.50;;;;;;2598751;47;21244;31
2023/12/30 00:43:08;;;;;;;3.10;1.40;;;9.80;71.50;;;;;;2583540;54;20996;31
2023/12/30 00:46:05;;;;;;;1.33;1.20;;;9.80;72.80;;;;;;2682813;39;21145;31
2023/12/30 00:48:46;;;;;;;1.97;1.10;;;9.80;73.50;;;;;;2584320;54;20112;31
2023/12/30 00:51:34;;;;;;;2.15;1.30;;;9.80;74.10;;;;;;2603229;47;20742;31
2023/12/30 00:54:08;;;;;;;2.97;1.20;;;9.80;74.80;;;;;;2584324;54;20916;31
2023/12/30 00:56:46;;;;;;;2.78;1.35;;;9.80;75.20;;;;;;2584559;54;21014;31
2023/12/30 00:59:19;;;;;;;2.90;1.50;;;9.80;75.50;;;;;;2584484;54;20850;31
2023/12/30 01:01:59;;;;;;;2.15;0.90;;;9.80;75.10;;;;;;2585040;54;20792;31
2023/12/30 01:04:35;;;;;;;3.15;1.10;;;9.80;75.10;;;;;;2603762;46;20084;31
2023/12/30 01:07:09;;;;;;;1.80;0.87;;;9.80;75.00;;;;;;2603207;46;20992;31
2023/12/30 01:09:43;;;;;;;3.65;1.30;;;9.80;73.40;;;;;;2603680;46;22142;31
2023/12/30 01:12:18;;;;;;;3.40;1.27;;;9.80;75.40;;;;;;2701539;39;22475;31
2023/12/30 01:14:56;;;;;;;3.03;1.02;;;9.80;74.10;;;;;;2585145;54;20037;31
2023/12/30 01:17:35;;;;;;;2.40;1.30;;;9.80;73.70;;;;;;2584457;54;20039;31
2023/12/30 01:20:13;;;;;;;2.95;1.00;;;9.80;74.10;;;;;;2585151;54;20802;31
2023/12/30 01:22:50;;;;;;;1.70;1.00;;;9.80;73.30;;;;;;2584327;54;20029;31
2023/12/30 01:25:25;;;;;;;2.83;0.90;;;9.80;74.20;;;;;;2744515;31;21680;31
2023/12/30 01:28:00;;;;;;;3.60;1.40;;;9.80;74.00;;;;;;2585277;54;20903;31
2023/12/30 01:30:37;;;;;;;2.15;0.95;;;9.80;73.70;;;;;;2585053;54;20108;31
2023/12/30 01:33:17;;;;;;;2.25;0.90;;;9.80;74.70;;;;;;2585223;54;20918;31
2023/12/30 01:35:53;;;;;;;2.80;1.10;;;9.80;73.50;;;;;;2585199;54;22028;31
2023/12/30 01:38:31;;;;;;;1.70;0.90;;;9.80;73.50;;;;;;2585416;54;20922;31
2023/12/30 01:41:07;;;;;;;3.65;1.45;;;9.80;73.80;;;;;;2585402;54;20053;31
2023/12/30 01:43:43;;;;;;;4.10;0.93;;;9.70;74.40;;;;;;2585322;54;20968;31
2023/12/30 01:46:19;;;;;;;1.70;0.90;;;9.70;75.70;;;;;;2585266;54;20235;31
2023/12/30 01:48:57;;;;;;;1.45;0.60;;;9.60;75.20;;;;;;2585318;54;20945;31
2023/12/30 01:51:32;;;;;;;2.25;1.00;;;9.60;76.00;;;;;;2585436;54;20076;31
2023/12/30 01:54:08;;;;;;;2.00;0.88;;;9.50;76.70;;;;;;2585004;54;21008;31
2023/12/30 01:56:46;;;;;;;2.55;1.10;;;9.50;78.30;;;;;;2603583;46;20777;31
2023/12/30 01:59:21;;;;;;;3.00;1.20;;;9.40;79.30;;;;;;2585098;54;20756;31
2023/12/30 02:01:57;;;;;;;3.40;1.10;;;9.30;80.80;;;;;;2585181;54;20053;31
2023/12/30 02:04:32;;;;;;;2.60;1.00;;;9.30;82.20;;;;;;2584632;54;20033;31
2023/12/30 02:07:08;;;;;;;2.30;1.30;;;9.30;82.90;;;;;;2585092;54;20066;31
2023/12/30 02:09:47;;;;;;;;;;;9.20;83.90;;;;;;2596948;46;20674;31
2023/12/30 02:12:22;;;;;;;1.95;1.05;;;9.20;85.30;;;;;;2603052;46;19935;31
2023/12/30 02:15:02;;;;;;;2.78;1.02;;;9.20;85.40;;;;;;2585119;54;20903;31
2023/12/30 02:17:37;;;;;;;3.13;1.30;;;9.10;85.70;;;;;;2603129;46;20957;31
2023/12/30 02:20:15;;;;;;;3.10;1.10;;;9.10;86.70;;;;;;2584848;54;20046;31
2023/12/30 02:22:53;;;;;;;2.83;1.35;;;9.10;87.10;;;;;;2585138;54;20906;31
2023/12/30 02:25:34;;;;;;;2.90;1.10;;;9.00;88.20;;;;;;2584944;54;20900;31
2023/12/30 02:28:08;;;;;;;3.97;1.30;;;9.00;89.00;;;;;;2682271;39;20466;31
2023/12/30 02:30:43;;;;;;;2.95;1.33;;;9.00;89.70;;;;;;2584851;54;21172;31
2023/12/30 02:33:21;;;;;;;1.55;1.00;;;9.00;88.30;;;;;;2584927;54;20836;31
2023/12/30 02:35:56;;;;;;;1.05;0.70;;;9.00;86.30;;;;;;2682457;39;21432;31
2023/12/30 02:38:36;;;;;;;2.17;1.40;;;9.10;86.00;;;;;;2585124;54;20932;31
2023/12/30 02:41:11;;;;;;;2.00;0.95;;;9.10;84.30;;;;;;2584909;54;20772;31
2023/12/30 02:43:52;;;;;;;2.20;1.00;;;9.10;83.90;;;;;;2584811;54;20028;31
2023/12/30 02:46:28;;;;;;;2.40;1.70;;;9.10;84.70;;;;;;2584981;54;20785;31
2023/12/30 02:49:07;;;;;;;1.83;0.75;;;9.10;84.30;;;;;;2585045;54;20026;31
2023/12/30 02:51:47;;;;;;;2.00;0.82;;;9.20;83.80;;;;;;2585256;54;20022;31
2023/12/30 02:54:24;;;;;;;3.00;1.00;;;9.10;83.00;;;;;;2584012;54;20935;31
2023/12/30 02:57:02;;;;;;;2.28;0.98;;;9.20;83.60;;;;;;2584138;54;20044;31
2023/12/30 02:59:37;;;;;;;2.45;1.00;;;9.20;83.40;;;;;;2584913;54;20026;31
2023/12/30 03:02:14;;;;;;;2.03;1.00;;;9.20;82.90;;;;;;2603329;46;20920;31
2023/12/30 03:04:51;;;;;;;1.42;0.88;;;9.20;82.70;;;;;;2682940;39;21081;31
2023/12/30 03:07:29;;;;;;;3.27;1.30;;;9.10;82.50;;;;;;2584736;54;19934;31
2023/12/30 03:10:10;;;;;;;1.77;1.00;;;9.20;82.60;;;;;;2603415;46;20037;31
2023/12/30 03:12:45;;;;;;;1.70;0.90;;;9.10;82.60;;;;;;2603679;46;20923;31
2023/12/30 03:15:23;;;;;;;2.30;1.10;;;9.10;82.40;;;;;;2603012;46;20975;31
2023/12/30 03:17:59;;;;;;;2.07;0.80;;;9.10;81.60;;;;;;2603270;46;20032;31
2023/12/30 03:20:34;;;;;;;1.45;0.80;;;9.10;81.50;;;;;;2585164;54;20239;31
2023/12/30 03:23:09;;;;;;;1.38;0.70;;;9.10;79.80;;;;;;2603442;46;20922;31
2023/12/30 03:25:47;;;;;;;2.55;0.98;;;9.10;80.70;;;;;;2585050;54;20052;31
2023/12/30 03:28:23;;;;;;;2.10;0.75;;;9.10;81.00;;;;;;2584927;54;20875;31
2023/12/30 03:30:59;;;;;;;;;;;9.10;80.00;;;;;;2584571;54;20812;31
2023/12/30 03:33:37;;;;;;;1.55;0.70;;;9.10;79.30;;;;;;2603342;46;20701;31
2023/12/30 03:36:15;;;;;;;1.60;0.80;;;9.10;79.00;;;;;;2584853;54;20045;31
2023/12/30 03:38:51;;;;;;;1.58;0.68;;;9.10;79.30;;;;;;2584778;54;20776;31
2023/12/30 03:41:30;;;;;;;1.50;0.75;;;9.00;80.80;;;;;;2584698;54;20026;31
2023/12/30 03:44:03;;;;;;;1.90;0.70;;;9.00;81.20;;;;;;2583965;54;20100;31
2023/12/30 03:46:38;;;;;;;3.50;1.50;;;9.00;81.60;;;;;;2601610;46;20046;31
2023/12/30 03:49:13;;;;;;;1.08;0.80;;;9.00;81.70;;;;;;2584389;54;20068;31
2023/12/30 03:51:48;;;;;;;1.90;0.60;;;9.00;81.30;;;;;;2583813;54;20026;31
2023/12/30 03:54:25;;;;;;;1.20;0.60;;;9.00;81.80;;;;;;2584697;54;21018;31
2023/12/30 03:57:04;;;;;;;0.70;0.50;;;9.00;81.00;;;;;;2584286;54;20356;31
2023/12/30 03:59:40;;;;;;;1.97;0.63;;;9.00;80.10;;;;;;2584831;54;20945;31
2023/12/30 04:02:18;;;;;;;1.45;0.80;;;9.00;80.80;;;;;;2584691;54;20861;31
2023/12/30 04:04:54;;;;;;;1.75;0.90;;;9.00;81.00;;;;;;2584593;54;20889;31
2023/12/30 04:07:33;;;;;;;2.45;1.10;;;9.00;80.80;;;;;;2584504;54;20057;31
2023/12/30 04:10:12;;;;;;;1.70;1.10;;;9.00;80.20;;;;;;2602744;47;20054;31
2023/12/30 04:12:49;;;;;;;1.67;0.80;;;9.00;81.00;;;;;;2584641;54;20175;31
2023/12/30 04:15:26;;;;;;;1.45;0.75;;;9.00;79.60;;;;;;2603009;47;19941;31
2023/12/30 04:17:59;;;;;;;1.77;0.70;;;9.00;81.50;;;;;;2584751;54;20742;31
2023/12/30 04:20:37;;;;;;;1.10;0.50;;;9.00;82.80;;;;;;2584864;54;20076;31
2023/12/30 04:23:11;;;;;;;1.70;0.60;;;9.00;99.90;;;;;;2583687;54;20034;31
2023/12/30 04:25:46;;;;;;;1.65;0.73;;;9.00;90.70;;;;;;2584355;54;20050;31
2023/12/30 04:28:28;;;;;;;2.28;0.60;;;9.00;96.50;;;;;;2584540;54;20081;31
2023/12/30 04:31:01;;;;;;;1.00;0.50;;;8.90;96.30;;;;;;2603203;47;20046;31
2023/12/30 04:33:38;;;;;;;2.38;0.30;;;8.80;98.70;;;;;;2584499;54;20062;31
2023/12/30 04:36:18;;;;;;;0.65;0.30;;;8.80;99.80;;;;;;2584876;54;20787;31
2023/12/30 04:38:51;;;;;;;0.20;0.10;;;8.70;99.90;;;;;;2584712;54;20027;31
2023/12/30 04:41:28;;;;;;;1.60;0.20;;;8.70;99.90;;;;;;2585523;54;20026;31
2023/12/30 04:44:08;;;;;;;0.20;0.10;;;8.70;99.90;;;;;;2585307;54;20811;31
2023/12/30 04:46:43;;;;;;;0.40;0.10;;;8.70;99.90;;;;;;2584471;54;20022;31
2023/12/30 04:49:15;;;;;;;0.43;0.10;;;8.60;99.90;;;;;;2584410;54;20918;31
2023/12/30 04:51:50;;;;;;;0.25;0.10;;;8.60;99.90;;;;;;2584778;54;20036;31
2023/12/30 04:54:27;;;;;;;0.55;0.20;;;8.60;99.90;;;;;;2584577;54;20836;31
2023/12/30 04:57:02;;;;;;;0.30;0.10;;;8.60;99.90;;;;;;2584525;54;20956;31
2023/12/30 04:59:41;;;;;;;0.63;0.10;;;8.60;99.90;;;;;;2585337;54;20755;31
2023/12/30 05:02:16;;;;;;;0.33;0.20;;;8.60;99.90;;;;;;2584956;54;20034;31
2023/12/30 05:04:50;;;;;;;0.32;0.10;;;8.60;99.90;;;;;;2585355;54;20750;31
2023/12/30 05:07:28;;;;;;;0.57;0.10;;;8.50;99.90;;;;;;2585319;54;20955;31
2023/12/30 05:10:04;;;;;;;0.55;0.10;;;8.50;99.90;;;;;;2585179;54;20865;31
2023/12/30 05:12:44;;;;;;;1.20;0.50;;;8.40;99.90;;;;;;2584334;54;20930;31
2023/12/30 05:15:23;;;;;;;0.20;0.00;;;8.30;99.90;;;;;;2597323;46;20064;31
2023/12/30 05:18:04;;;;;;;1.95;0.20;;;8.30;99.90;;;;;;2594527;46;20077;31
2023/12/30 05:20:40;;;;;;;0.50;0.10;;;8.20;99.90;;;;;;2585443;54;20034;31
2023/12/30 05:23:19;;;;;;;0.50;0.20;;;8.20;99.90;;;;;;2585450;54;20737;31
2023/12/30 05:25:54;;;;;;;1.25;0.20;;;8.10;99.90;;;;;;2585832;54;21869;31
2023/12/30 05:28:31;;;;;;;0.60;0.15;;;8.10;99.90;;;;;;2603614;46;20036;31
2023/12/30 06:04:17;;;;;;;3.35;0.35;;;7.80;99.90;;;;;;2584435;54;20920;31
2023/12/30 06:06:53;;;;;;;2.08;0.20;;;7.70;99.90;;;;;;2584103;54;20764;31
2023/12/30 06:09:32;;;;;;;0.85;0.40;;;7.70;99.90;;;;;;2583845;54;20038;31
2023/12/30 06:14:59;;;;;;;0.80;0.40;;;7.70;99.90;;;;;;2603935;46;20939;31
2023/12/30 06:17:35;;;;;;;0.70;0.20;;;7.60;99.90;;;;;;2585129;54;20077;31
2023/12/30 06:20:14;;;;;;;0.40;0.20;;;7.60;99.90;;;;;;2585225;54;20108;31
2023/12/30 06:22:50;;;;;;;0.65;0.25;;;7.80;99.90;;;;;;2585240;54;20953;31
2023/12/30 06:25:25;;;;;;;0.50;0.27;;;7.90;99.90;;;;;;2603392;46;20037;31
2023/12/30 06:28:02;;;;;;;1.35;0.43;;;7.90;99.90;;;;;;2584698;54;20072;31
2023/12/30 06:30:37;;;;;;;1.80;0.40;;;7.90;99.90;;;;;;2584990;54;20152;31
2023/12/30 06:33:10;;;;;;;0.73;0.30;;;7.80;99.90;;;;;;2603246;46;20089;31
2023/12/30 06:35:46;;;;;;;2.25;0.60;;;7.70;99.90;;;;;;2585008;54;20940;31
2023/12/30 06:38:20;;;;;;;1.03;0.40;;;7.70;99.90;;;;;;2584953;54;20031;31
2023/12/30 06:40:53;;;;;;;2.30;0.40;;;7.60;99.90;;;;;;2603368;46;20817;31
2023/12/30 06:43:28;;;;;;;1.10;0.50;;;7.60;99.90;;;;;;2585066;54;20269;31
2023/12/30 06:46:06;;;;;;;1.27;0.35;;;7.60;99.90;;;;;;2585056;54;20876;31
2023/12/30 06:48:40;;;;;;;1.40;0.40;;;7.60;99.90;;;;;;2585029;54;20089;31
2023/12/30 06:51:18;;;;;;;1.85;0.60;;;7.60;99.90;;;;;;2584814;54;21001;31
2023/12/30 06:53:53;;;;;;;1.85;0.50;;;7.60;99.90;;;;;;2584944;54;20770;31
2023/12/30 06:56:28;;;;;;;2.45;0.70;;;7.60;99.90;;;;;;2585039;54;20953;31
2023/12/30 06:59:03;;;;;;;1.47;0.47;;;7.60;99.90;;;;;;2602708;46;20097;31
2023/12/30 07:01:39;;;;;;;0.57;0.30;;;7.60;99.90;;;;;;2584992;54;20052;31
2023/12/30 07:04:14;;;;;;;0.40;0.10;;;7.50;99.90;;;;;;2603084;46;20037;31
2023/12/30 07:06:51;;;;;;;0.30;0.10;;;7.30;99.90;;;;;;2585320;54;20086;31
2023/12/30 07:09:27;;;;;;;0.67;0.10;;;7.10;99.90;;;;;;2584958;54;20050;31
2023/12/30 07:12:00;;;;;;;0.40;0.00;;;6.90;99.90;;;;;;2584840;54;20872;31
2023/12/30 07:14:36;;;;;;;1.20;0.10;;;6.70;99.90;;;;;;2745214;31;20268;31
2023/12/30 07:17:09;;;;;;;0.93;0.10;;;6.60;99.90;;;;;;2603182;46;20824;31
2023/12/30 07:19:42;;;;;;;0.20;0.10;;;6.50;99.90;;;;;;2603869;46;20249;31
2023/12/30 07:22:19;;;;;;;0.50;0.10;;;6.50;99.90;;;;;;2585116;54;20768;31
2023/12/30 07:24:53;;;;;;;0.17;0.03;;;6.40;99.90;;;;;;2584923;54;20765;31
2023/12/30 07:27:26;;;;;;;0.98;0.57;;;6.40;99.90;;;;;;2584750;54;20033;31
2023/12/30 07:30:01;;;;;;;0.17;0.08;;;6.40;99.90;;;;;;2584970;54;20894;31
2023/12/30 07:32:37;;;;;;;0.00;0.00;;;6.40;99.90;;;;;;2603550;46;20032;31
2023/12/30 07:35:12;;;;;;;0.15;0.00;;;6.30;99.90;;;;;;2603755;46;20033;31
2023/12/30 07:37:51;;;;;;;0.25;0.00;;;6.30;99.90;;;;;;2584996;54;21043;31
2023/12/30 07:40:27;;;;;;;0.20;0.20;;;6.30;99.90;;;;;;2585233;54;20054;31
2023/12/30 07:43:02;;;;;;;0.90;0.10;;;6.30;99.90;;;;;;2584155;54;20931;31
2023/12/30 07:45:38;;;;;;;0.57;0.10;;;6.30;99.90;;;;;;2603462;46;20034;31
2023/12/30 07:48:16;;;;;;;0.90;0.20;;;6.30;99.90;;;;;;2585157;54;20246;31
2023/12/30 07:50:51;;;;;;;0.65;0.10;;;6.30;99.90;;;;;;2585202;54;21892;31
2023/12/30 07:53:32;;;;;;;0.00;0.00;;;6.20;99.90;;;;;;2584888;54;20882;31
2023/12/30 07:56:08;;;;;;;1.05;0.30;;;6.20;99.90;;;;;;2603268;47;20062;31
2023/12/30 07:58:43;;;;;;;;;;;6.30;99.90;;;;;;2585050;54;20074;31
2023/12/30 08:01:19;;;;;;;0.30;0.10;;;6.20;99.90;;;;;;2585002;54;20831;31
2023/12/30 08:03:54;;;;;;;0.60;0.20;;;6.20;99.90;;;;;;2585123;54;20923;31
2023/12/30 08:06:30;;;;;;;0.97;0.27;;;6.20;99.90;;;;;;2585244;54;20089;31
2023/12/30 08:09:09;;;;;;;;;;;6.10;99.90;;;;;;2603725;47;20262;31
2023/12/30 08:11:43;;;;;;;0.13;0.13;;;6.10;99.90;;;;;;2585437;54;20766;31
2023/12/30 08:14:33;;;;;;;2.83;0.40;;;6.10;99.90;;;;;;2585549;54;20026;31
2023/12/30 08:17:07;;;;;;;0.10;0.10;;;6.10;99.90;;;;;;2584907;54;20905;31
2023/12/30 08:19:50;;;;;;;0.70;0.20;;;6.10;99.90;;;;;;2585640;54;20797;31
2023/12/30 08:22:25;;;;;;;1.33;0.20;;;6.20;99.90;;;;;;2585622;54;21080;31
2023/12/30 08:25:03;;;;;;;;;;;6.20;99.90;;;;;;2584981;54;20829;31
2023/12/30 08:27:37;;;;;;;;;;;6.20;99.90;;;;;;2585739;54;20802;31
2023/12/30 08:30:15;;;;;;;1.00;0.20;;;6.20;99.90;;;;;;2585817;54;19957;31
2023/12/30 08:32:53;;;;;;;1.40;0.20;;;6.30;99.90;;;;;;2604442;46;20089;31
2023/12/30 08:35:26;;;;;;;0.50;0.10;;;6.30;99.90;;;;;;2603901;46;20038;31
2023/12/30 08:38:03;;;;;;;2.20;0.20;;;6.40;99.90;;;;;;2585619;54;21013;31
2023/12/30 08:40:43;;;;;;;2.67;0.30;;;6.40;99.90;;;;;;2599392;46;20034;31
2023/12/30 08:43:20;;;;;;;1.90;0.10;;;6.50;99.90;;;;;;2584856;54;20984;31
2023/12/30 08:45:56;;;;;;;1.58;0.82;;;6.60;99.90;;;;;;2584742;54;20048;31
2023/12/30 08:48:32;;;;;;;1.20;0.60;;;6.90;99.90;;;;;;2603959;46;20894;31
2023/12/30 08:51:08;;;;;;;0.90;0.60;;;7.10;99.90;;;;;;2585513;54;20026;31
2023/12/30 08:53:46;;;;;;;1.10;0.40;;;7.40;99.90;;;;;;2585768;54;20030;31
2023/12/30 08:56:25;;;;;;;1.10;0.30;;;7.60;99.90;;;;;;2585335;54;21028;31
2023/12/30 08:59:02;;;;;;;0.70;0.40;;;7.80;99.90;;;;;;2604291;46;20026;31
2023/12/30 09:01:39;;;;;;;1.83;0.50;;;7.80;99.90;;;;;;2604081;46;20026;31
2023/12/30 09:04:18;;;;;;;1.53;0.20;;;7.80;99.90;;;;;;2585191;54;20022;31
2023/12/30 09:06:52;;;;;;;1.02;0.38;;;7.80;99.90;;;;;;2604172;46;20042;31
2023/12/30 09:09:30;;;;;;;1.20;0.35;;;7.70;99.90;;;;;;2584568;54;20902;31
2023/12/30 09:12:13;;;;;;;2.77;0.33;;;7.70;99.90;;;;;;2585054;54;20165;31
2023/12/30 09:14:50;;;;;;;4.65;0.95;;;7.70;99.90;;;;;;2585458;54;20902;31
2023/12/30 09:17:26;;;;;;;0.90;0.40;;;7.60;99.90;;;;;;2585034;54;20886;31
2023/12/30 09:20:03;;;;;;;3.05;0.63;;;7.60;99.90;;;;;;2585038;54;20886;31
2023/12/30 09:22:39;;;;;;;4.05;0.85;;;7.60;99.90;;;;;;2584485;54;20104;31
2023/12/30 09:25:17;;;;;;;;;;;7.50;99.90;;;;;;2598987;46;20052;31
2023/12/30 09:27:55;;;;;;;1.40;0.40;;;7.50;99.90;;;;;;2584138;54;20909;31
2023/12/30 09:30:28;;;;;;;1.20;0.50;;;7.50;99.90;;;;;;2600262;46;20068;31
2023/12/30 09:33:05;;;;;;;2.30;0.40;;;7.50;99.90;;;;;;2584685;54;20939;31
2023/12/30 09:35:45;;;;;;;1.65;0.65;;;7.40;99.90;;;;;;2585310;54;20922;31
2023/12/30 09:38:20;;;;;;;1.80;0.40;;;7.40;99.90;;;;;;2585453;54;20766;31
2023/12/30 09:41:00;;;;;;;2.27;0.60;;;7.50;99.90;;;;;;2585006;54;20851;31
2023/12/30 09:43:39;;;;;;;1.27;0.30;;;7.50;99.90;;;;;;2683739;39;21008;31
2023/12/30 09:46:16;;;;;;;1.65;0.65;;;7.50;99.90;;;;;;2584918;54;20179;31
2023/12/30 09:48:58;;;;;;;1.65;0.63;;;7.50;99.90;;;;;;2603734;46;20034;31
2023/12/30 09:51:33;;;;;;;1.07;0.50;;;7.50;99.90;;;;;;2603532;46;22459;31
2023/12/30 09:54:10;;;;;;;0.93;0.30;;;7.50;99.90;;;;;;2585521;54;20027;31
2023/12/30 09:56:45;;;;;;;1.52;0.40;;;7.60;99.90;;;;;;2585442;54;20027;31
2023/12/30 09:59:26;;;;;;;0.45;0.20;;;7.60;99.90;;;;;;2603062;46;22488;31
2023/12/30 10:02:02;;;;;;;2.13;0.60;;;7.70;99.90;;;;;;2588418;46;20089;31
2023/12/30 10:04:40;;;;;;;1.90;0.70;;;7.70;99.90;;;;;;2585308;54;20956;31
2023/12/30 10:07:20;;;;;;;3.37;0.80;;;7.70;99.90;;;;;;2585180;54;20057;31
2023/12/30 10:09:57;;;;;;;2.65;0.50;;;7.80;99.90;;;;;;2585447;54;20379;31
2023/12/30 10:12:32;;;;;;;1.70;0.30;;;7.90;99.90;;;;;;2585045;54;19935;31
2023/12/30 10:15:14;;;;;;;0.77;0.28;;;8.10;99.90;;;;;;2584519;54;20965;31
2023/12/30 10:17:50;;;;;;;0.30;0.20;;;8.20;99.90;;;;;;2585309;54;20145;31
2023/12/30 10:20:27;;;;;;;1.45;0.45;;;8.50;99.90;;;;;;2585095;54;20038;31
2023/12/30 10:23:02;;;;;;;3.70;0.77;;;8.60;99.90;;;;;;2585263;54;20775;31
2023/12/30 10:25:41;;;;;;;9.73;0.93;;;8.70;99.90;;;;;;2585283;54;20030;31
2023/12/30 10:28:18;;;;;;;2.65;0.60;;;8.80;99.90;;;;;;2585083;54;20936;31
2023/12/30 10:31:02;;;;;;;1.60;0.60;;;8.80;99.70;;;;;;2603650;46;20030;31
2023/12/30 10:33:37;;;;;;;3.85;0.50;;;8.90;97.50;;;;;;2584995;54;20064;31
2023/12/30 10:36:14;;;;;;;2.45;0.55;;;9.00;95.30;;;;;;2585204;54;20901;31
2023/12/30 10:38:52;;;;;;;3.20;0.60;;;9.10;95.80;;;;;;2584648;54;21008;31
2023/12/30 10:41:28;;;;;;;1.30;0.50;;;9.20;94.70;;;;;;2585076;54;20049;31
2023/12/30 10:44:06;;;;;;;2.30;0.55;;;9.10;91.50;;;;;;2584996;54;20027;31
2023/12/30 10:46:44;;;;;;;2.07;0.83;;;9.10;88.70;;;;;;2585090;54;20053;31
2023/12/30 10:49:22;;;;;;;3.65;1.20;;;9.00;91.20;;;;;;2603608;46;20243;31
2023/12/30 10:51:59;;;;;;;2.30;0.70;;;9.10;90.70;;;;;;2603232;46;20060;31
2023/12/30 10:54:37;;;;;;;2.50;0.60;;;9.00;91.40;;;;;;2585178;54;20809;31
2023/12/30 10:57:13;;;;;;;2.80;0.47;;;9.00;91.80;;;;;;2585102;54;20030;31
2023/12/30 10:59:52;;;;;;;3.33;0.70;;;9.10;93.50;;;;;;2584977;54;21032;31
2023/12/30 11:02:32;;;;;;;4.43;1.42;;;9.00;95.20;;;;;;2584990;54;20871;31
2023/12/30 11:05:10;;;;;;;2.88;0.80;;;9.10;92.30;;;;;;2585218;54;20911;31
2023/12/30 11:07:49;;;;;;;6.10;0.90;;;9.10;93.90;;;;;;2585672;54;21150;31
2023/12/30 11:10:23;;;;;;;2.90;1.10;;;9.10;95.00;;;;;;2584705;54;20942;31
2023/12/30 11:13:01;;;;;;;2.00;0.80;;;9.10;94.90;;;;;;2584732;54;20970;31
2023/12/30 11:15:41;;;;;;;5.88;0.60;;;9.30;99.90;;;;;;2584920;54;20871;31
2023/12/30 11:18:22;;;;;;;1.70;1.00;;;9.30;90.50;;;;;;2585080;54;20046;31
2023/12/30 11:21:02;;;;;;;2.40;0.80;;;9.30;91.60;;;;;;2603456;46;20026;31
2023/12/30 11:23:37;;;;;;;3.10;0.60;;;9.20;92.50;;;;;;2602962;46;20920;31
2023/12/30 11:26:17;;;;;;;1.52;0.50;;;9.20;92.50;;;;;;2603898;46;20057;31
2023/12/30 11:28:55;;;;;;;2.45;0.70;;;9.10;93.10;;;;;;2585044;54;22458;31
2023/12/30 11:31:34;;;;;;;2.67;0.30;;;9.00;94.90;;;;;;2584896;54;20026;31
2023/12/30 11:34:14;;;;;;;1.75;0.40;;;9.00;95.20;;;;;;2584482;54;20026;31
2023/12/30 11:36:52;;;;;;;2.70;1.10;;;9.00;95.60;;;;;;2585100;54;20938;31
2023/12/30 11:39:32;;;;;;;4.20;1.10;;;9.00;97.70;;;;;;2603581;46;20921;31
2023/12/30 11:42:08;;;;;;;2.23;0.70;;;9.00;97.50;;;;;;2584415;54;20058;31
2023/12/30 11:44:45;;;;;;;3.63;1.60;;;9.00;97.90;;;;;;2701292;39;21089;31
2023/12/30 11:47:30;;;;;;;4.27;1.70;;;9.00;98.40;;;;;;2585053;54;19935;31
2023/12/30 11:50:14;;;;;;;2.33;1.00;;;8.90;98.40;;;;;;2584788;54;20045;31
2023/12/30 11:52:52;;;;;;;3.10;0.90;;;8.90;98.90;;;;;;2584373;54;20081;31
2023/12/30 11:55:31;;;;;;;1.90;0.70;;;8.90;98.20;;;;;;2584773;54;20876;31
2023/12/30 11:58:09;;;;;;;2.10;0.80;;;8.90;99.00;;;;;;2585049;54;21209;31
2023/12/30 12:00:44;;;;;;;96.30;12.00;;;8.80;99.90;;;;;;2584658;54;21000;31
2023/12/30 12:03:22;;;;;;;55.20;7.75;;;8.80;99.20;;;;;;2584587;54;20964;31
2023/12/30 12:06:04;;;;;;;100.53;13.77;;;8.80;99.90;;;;;;2584031;54;20740;31
2023/12/30 12:08:39;;;;;;;23.03;5.30;;;8.80;98.70;;;;;;2603395;47;20030;31
2023/12/30 12:11:19;;;;;;;6.10;2.50;;;8.70;97.60;;;;;;2584489;54;20792;31
2023/12/30 12:13:59;;;;;;;5.63;1.93;;;8.80;99.10;;;;;;2583649;54;20034;31
2023/12/30 12:16:36;;;;;;;3.63;1.20;;;8.80;96.30;;;;;;2584598;54;20250;31
2023/12/30 12:19:15;;;;;;;3.80;1.10;;;8.80;94.90;;;;;;2584836;54;20030;31
2023/12/30 12:22:01;;;;;;;4.80;0.75;;;8.70;95.00;;;;;;2584283;54;20029;31
2023/12/30 12:24:37;;;;;;;2.65;0.60;;;8.70;92.10;;;;;;2584477;54;20888;31
2023/12/30 12:27:12;;;;;;;3.13;0.75;;;8.70;98.40;;;;;;2603263;47;20027;31
2023/12/30 12:29:51;;;;;;;4.83;0.60;;;8.70;87.60;;;;;;2602823;47;20960;31
2023/12/30 12:32:39;;;;;;;4.40;1.00;;;8.70;86.20;;;;;;2584434;54;20774;31
2023/12/30 12:35:20;;;;;;;2.78;1.02;;;8.70;82.60;;;;;;2584861;54;20052;31
2023/12/30 12:37:56;;;;;;;1.65;0.75;;;8.60;80.90;;;;;;2584711;54;20895;31
2023/12/30 12:40:35;;;;;;;4.20;1.50;;;8.60;83.00;;;;;;2584341;54;20030;31
2023/12/30 12:43:11;;;;;;;3.00;1.38;;;8.60;82.00;;;;;;2584647;54;20738;31
2023/12/30 12:45:50;;;;;;;3.90;1.35;;;8.60;83.50;;;;;;2584792;54;20925;31
2023/12/30 12:48:29;;;;;;;5.85;1.85;;;8.60;88.30;;;;;;2584810;54;20107;31
2023/12/30 12:51:09;;;;;;;2.17;0.95;;;8.60;90.30;;;;;;2584796;54;20080;31
2023/12/30 12:53:45;;;;;;;4.87;1.53;;;8.60;90.00;;;;;;2584614;54;20913;31
2023/12/30 12:56:22;;;;;;;2.42;1.05;;;8.60;90.00;;;;;;2583971;54;20893;31
2023/12/30 12:58:58;;;;;;;5.15;1.00;;;8.60;87.60;;;;;;2585696;54;21923;31
2023/12/30 13:01:32;;;;;;;;;;;8.60;88.10;;;;;;2598203;46;21057;31
2023/12/30 13:04:10;;;;;;;4.35;1.23;;;8.60;88.50;;;;;;2585577;54;20672;31
2023/12/30 13:06:49;;;;;;;3.77;1.43;;;8.50;87.40;;;;;;2603191;46;20081;31
2023/12/30 13:09:34;;;;;;;4.53;1.30;;;8.50;87.60;;;;;;2585560;54;20928;31
2023/12/30 13:12:17;;;;;;;2.70;1.30;;;8.50;87.60;;;;;;2585105;54;21045;31
2023/12/30 13:14:58;;;;;;;4.18;1.50;;;8.50;85.90;;;;;;2603670;46;20022;31
2023/12/30 13:17:46;;;;;;;6.85;1.83;;;8.50;87.20;;;;;;2585081;54;20605;31
2023/12/30 13:20:20;;;;;;;4.73;1.73;;;8.50;88.10;;;;;;2603565;46;20113;31
2023/12/30 13:22:57;;;;;;;5.60;1.70;;;8.50;88.80;;;;;;2603738;46;20036;31
2023/12/30 13:25:34;;;;;;;6.78;2.13;;;8.50;91.10;;;;;;2585455;54;20042;31
2023/12/30 13:28:14;;;;;;;11.20;2.85;;;8.50;91.60;;;;;;2585330;54;20950;31
2023/12/30 13:30:52;;;;;;;10.77;2.50;;;8.50;91.90;;;;;;2585515;54;20027;31
2023/12/30 13:33:34;;;;;;;7.65;2.20;;;8.50;92.40;;;;;;2585245;54;20083;31
2023/12/30 13:36:11;;;;;;;4.82;1.83;;;8.50;90.30;;;;;;2585242;54;20057;31
2023/12/30 13:38:51;;;;;;;4.10;1.75;;;8.50;92.20;;;;;;2603535;46;20034;31
2023/12/30 13:41:31;;;;;;;5.78;1.30;;;8.40;91.60;;;;;;2584926;54;20030;31
2023/12/30 13:44:12;;;;;;;4.90;1.63;;;8.40;92.10;;;;;;2701969;39;21121;31
2023/12/30 13:47:23;;;;;;;5.43;2.70;;;8.40;92.20;;;;;;2585048;54;20148;31
2023/12/30 13:50:11;;;;;;;12.00;4.85;;;8.40;93.10;;;;;;2585487;54;20030;31
2023/12/30 13:52:42;;;;;;;7.30;2.83;;;8.40;94.00;;;;;;2585271;54;20052;31
2023/12/30 13:55:21;;;;;;;8.30;3.00;;;8.30;93.10;;;;;;2585142;54;20833;31
2023/12/30 13:57:59;;;;;;;6.43;2.08;;;8.30;93.50;;;;;;2585270;54;20030;31
2023/12/30 14:00:42;;;;;;;4.13;2.05;;;8.30;92.80;;;;;;2585206;54;20026;31
2023/12/30 14:03:18;;;;;;;5.78;2.20;;;8.30;93.30;;;;;;2585367;54;20761;31
2023/12/30 14:05:55;;;;;;;8.30;2.70;;;8.30;94.10;;;;;;2585282;54;20761;31
2023/12/30 14:08:36;;;;;;;7.60;3.10;;;8.30;94.60;;;;;;2603143;46;20325;31
2023/12/30 14:11:33;;;;;;;8.65;3.60;;;8.20;94.60;;;;;;2585105;54;21032;31
2023/12/30 14:14:11;;;;;;;7.13;3.33;;;8.30;94.00;;;;;;2585246;54;21004;31
2023/12/30 14:16:49;;;;;;;6.37;3.10;;;8.20;95.20;;;;;;2585125;54;21172;31
2023/12/30 14:19:22;;;;;;;7.35;2.05;;;8.20;94.80;;;;;;2584837;54;20030;31
2023/12/30 14:22:03;;;;;;;11.60;3.22;;;8.20;94.50;;;;;;2603480;46;20908;31
2023/12/30 14:24:39;;;;;;;9.03;3.10;;;8.20;94.60;;;;;;2584543;54;20026;31
2023/12/30 14:27:13;;;;;;;;;;;8.20;95.60;;;;;;2584678;54;20030;31
2023/12/30 14:29:53;;;;;;;10.35;3.60;;;8.20;95.40;;;;;;2584819;54;19957;31
2023/12/30 14:32:33;;;;;;;9.17;3.63;;;8.10;95.10;;;;;;2584936;54;21000;31
2023/12/30 14:35:14;;;;;;;11.20;3.50;;;8.10;96.90;;;;;;2603753;46;20926;31
2023/12/30 14:37:49;;;;;;;12.35;4.40;;;8.10;96.20;;;;;;2603713;46;20871;31
2023/12/30 14:40:22;;;;;;;15.15;4.90;;;8.10;96.50;;;;;;2585298;54;20946;31